Lentia, Austria

10:39 AM CEST die 23o October, anno 2014 (GMT +0200)
Linz Urfahr, Austria | Change Station
CLOSE
Current Station
Personal Weather Stations
Location: Linz, OBERöSTERREICH
Elevation: 892 ft
Nearby Weather Stations
Active Advisory: Rain english:

Elev 892 ft 48.32 °N, 14.28 °E | Updated 1 second ago

Light Rain
Pluvia Levis
51.8 °F
Feels Like 51.8 °F
N
0.0
Ventus Variabilis Ventus from Magis Eurus quam Auster
Gusts 0.0 mph

Hodie
High -- | Low -- °F
--% Chance of Precip.
Yesterday
High -- | Low -- °F
Precip. -- in
7:34 AM 5:59 PM
Waning Crescent, 0% visible
Pressio 29.92 in
Visibilitas 6.2 milia passuum
Clouds Few 700 ft
Nubes Dispersae 2600 ft
Plerumque Nubila 3800 ft
Frigus in quo Ros apparet 51 °F
Umor 97%
Rainfall 0.52 in
Snow Depth Not available.
UV 0.0 out of 12
Pollen Not available.
Air Quality Not available.
Flu Activity Not available.
METAR LOWL 230820Z 29009KT 9999 -RA FEW007 SCT026 BKN038 10/08 Q1013 NOSIG

More Conditions Fewer Conditions

Pressio 29.92 in
Visibilitas 6.2 milia passuum
Clouds Few 700 ft
Nubes Dispersae 2600 ft
Plerumque Nubila 3800 ft
Frigus in quo Ros apparet 51 °F
Umor 97%
Rainfall 0.52 in
Snow Depth Not available.
UV 0.0 out of 12
Pollen Not available.
Air Quality Not available.
Flu Activity Not available.
METAR LOWL 230820Z 29009KT 9999 -RA FEW007 SCT026 BKN038 10/08 Q1013 NOSIG

More Conditions Fewer Conditions

10-Day Weather Forecast

Almanac

Astronomy

Oct. 23, 2014 Rise Set
Actual Time 7:34 AM CEST 5:59 PM CEST
Civil Twilight 7:02 AM CEST 6:31 PM CEST
Nautical Twilight 6:25 AM CEST 7:07 PM CEST
Astronomical Twilight 5:49 AM CEST 7:43 PM CEST
Moon 6:54 AM CEST 5:51 PM CEST
Length Of Visible Light 11h 29m
Length of Day
10h 25m
Tomorrow will be 3m 18s shorter.
Waning Crescent, 0% of the Moon is Illuminated
Hodie
Waning Crescent
Oct 23
New
Oct 30
First Quarter
Nov 6
Full
Nov 14
Last Quarter

Yesterday's Extremes

Country Highs Country Lows

Community

WunderPhotos

Upload Photos

1,764,197 photos uploaded!

Nearby

Snow Depth

Not available.

Earthquake Activity

City Distance Mag. Time & Date
No recent earthquake activity has been reported nearby.
Minimum magnitude displayed is 2.5.

Coastal Water Temperatures

Locus Calor
No Stations Reporting

Nearby Weather Stations